sensor_id;sensor_type;location;lat;lon;timestamp;temperature;humidity
1800;DHT22;919;48.274;12.292;2022-12-05T00:02:11;2.70;99.90
1800;DHT22;919;48.274;12.292;2022-12-05T00:04:37;2.60;99.90
1800;DHT22;919;48.274;12.292;2022-12-05T00:07:04;2.70;99.90
1800;DHT22;919;48.274;12.292;2022-12-05T00:09:31;2.70;99.90
1800;DHT22;919;48.274;12.292;2022-12-05T00:11:58;2.60;99.90
1800;DHT22;919;48.274;12.292;2022-12-05T00:14:26;2.60;99.90
1800;DHT22;919;48.274;12.292;2022-12-05T00:16:52;2.60;99.90
1800;DHT22;919;48.274;12.292;2022-12-05T00:19:19;2.60;99.90
1800;DHT22;919;48.274;12.292;2022-12-05T00:21:47;2.60;99.90
1800;DHT22;919;48.274;12.292;2022-12-05T00:24:15;2.60;99.90
1800;DHT22;919;48.274;12.292;2022-12-05T00:26:42;2.60;99.90
1800;DHT22;919;48.274;12.292;2022-12-05T00:29:10;2.70;99.90
1800;DHT22;919;48.274;12.292;2022-12-05T00:31:39;2.60;99.90
1800;DHT22;919;48.274;12.292;2022-12-05T00:34:06;2.60;99.90
1800;DHT22;919;48.274;12.292;2022-12-05T00:36:34;2.70;99.90
1800;DHT22;919;48.274;12.292;2022-12-05T00:39:05;2.70;99.90
1800;DHT22;919;48.274;12.292;2022-12-05T00:41:32;2.80;99.90
1800;DHT22;919;48.274;12.292;2022-12-05T00:44:00;2.80;99.90
1800;DHT22;919;48.274;12.292;2022-12-05T00:46:29;2.80;99.90
1800;DHT22;919;48.274;12.292;2022-12-05T00:48:58;2.70;99.90
1800;DHT22;919;48.274;12.292;2022-12-05T00:51:26;2.70;99.90
1800;DHT22;919;48.274;12.292;2022-12-05T00:53:56;2.60;99.90
1800;DHT22;919;48.274;12.292;2022-12-05T00:56:24;2.60;99.90
1800;DHT22;919;48.274;12.292;2022-12-05T00:58:52;2.70;99.90
1800;DHT22;919;48.274;12.292;2022-12-05T01:01:22;2.70;99.90
1800;DHT22;919;48.274;12.292;2022-12-05T01:03:51;2.70;99.90
1800;DHT22;919;48.274;12.292;2022-12-05T01:06:20;2.70;99.90
1800;DHT22;919;48.274;12.292;2022-12-05T01:08:47;2.60;99.90
1800;DHT22;919;48.274;12.292;2022-12-05T01:11:15;2.60;99.90
1800;DHT22;919;48.274;12.292;2022-12-05T01:13:43;2.60;99.90
1800;DHT22;919;48.274;12.292;2022-12-05T01:16:13;2.60;99.90
1800;DHT22;919;48.274;12.292;2022-12-05T01:18:40;2.60;99.90
1800;DHT22;919;48.274;12.292;2022-12-05T01:21:07;2.60;99.90
1800;DHT22;919;48.274;12.292;2022-12-05T01:23:35;2.70;99.90
1800;DHT22;919;48.274;12.292;2022-12-05T01:26:05;2.60;99.90
1800;DHT22;919;48.274;12.292;2022-12-05T01:28:32;2.60;99.90
1800;DHT22;919;48.274;12.292;2022-12-05T01:31:04;2.60;99.90
1800;DHT22;919;48.274;12.292;2022-12-05T01:33:31;2.60;99.90
1800;DHT22;919;48.274;12.292;2022-12-05T01:35:58;2.70;99.90
1800;DHT22;919;48.274;12.292;2022-12-05T01:38:25;2.60;99.90
1800;DHT22;919;48.274;12.292;2022-12-05T01:41:01;2.60;99.90
1800;DHT22;919;48.274;12.292;2022-12-05T01:43:28;2.60;99.90
1800;DHT22;919;48.274;12.292;2022-12-05T01:45:55;2.50;99.90
1800;DHT22;919;48.274;12.292;2022-12-05T01:48:24;2.50;99.90
1800;DHT22;919;48.274;12.292;2022-12-05T01:50:51;2.60;99.90
1800;DHT22;919;48.274;12.292;2022-12-05T01:53:19;2.60;99.90
1800;DHT22;919;48.274;12.292;2022-12-05T01:55:47;2.60;99.90
1800;DHT22;919;48.274;12.292;2022-12-05T01:58:17;2.60;99.90
1800;DHT22;919;48.274;12.292;2022-12-05T02:00:44;2.60;99.90
1800;DHT22;919;48.274;12.292;2022-12-05T02:03:16;2.60;99.90
1800;DHT22;919;48.274;12.292;2022-12-05T02:05:44;2.60;99.90
1800;DHT22;919;48.274;12.292;2022-12-05T02:08:11;2.60;99.90
1800;DHT22;919;48.274;12.292;2022-12-05T02:10:41;2.60;99.90
1800;DHT22;919;48.274;12.292;2022-12-05T02:13:27;2.60;99.90
1800;DHT22;919;48.274;12.292;2022-12-05T02:16:01;2.50;99.90
1800;DHT22;919;48.274;12.292;2022-12-05T02:18:42;2.60;99.90
1800;DHT22;919;48.274;12.292;2022-12-05T02:21:27;2.50;99.90
1800;DHT22;919;48.274;12.292;2022-12-05T02:27:56;2.60;99.90
1800;DHT22;919;48.274;12.292;2022-12-05T02:30:33;2.60;99.90
1800;DHT22;919;48.274;12.292;2022-12-05T02:33:07;2.60;99.90
1800;DHT22;919;48.274;12.292;2022-12-05T02:35:44;2.60;99.90
1800;DHT22;919;48.274;12.292;2022-12-05T02:38:21;2.50;99.90
1800;DHT22;919;48.274;12.292;2022-12-05T02:40:58;2.50;99.90
1800;DHT22;919;48.274;12.292;2022-12-05T02:43:31;2.50;99.90
1800;DHT22;919;48.274;12.292;2022-12-05T02:46:05;2.50;99.90
1800;DHT22;919;48.274;12.292;2022-12-05T02:48:35;2.50;99.90
1800;DHT22;919;48.274;12.292;2022-12-05T02:51:03;2.50;99.90
1800;DHT22;919;48.274;12.292;2022-12-05T02:53:31;2.50;99.90
1800;DHT22;919;48.274;12.292;2022-12-05T02:55:58;2.50;99.90
1800;DHT22;919;48.274;12.292;2022-12-05T02:58:31;2.50;99.90
1800;DHT22;919;48.274;12.292;2022-12-05T03:01:01;2.50;99.90
1800;DHT22;919;48.274;12.292;2022-12-05T03:03:28;2.50;99.90
1800;DHT22;919;48.274;12.292;2022-12-05T03:06:01;2.50;99.90
1800;DHT22;919;48.274;12.292;2022-12-05T03:08:38;2.50;99.90
1800;DHT22;919;48.274;12.292;2022-12-05T03:11:07;2.50;99.90
1800;DHT22;919;48.274;12.292;2022-12-05T03:13:38;2.50;99.90
1800;DHT22;919;48.274;12.292;2022-12-05T03:16:10;2.50;99.90
1800;DHT22;919;48.274;12.292;2022-12-05T03:18:40;2.50;99.90
1800;DHT22;919;48.274;12.292;2022-12-05T03:21:14;2.50;99.90
1800;DHT22;919;48.274;12.292;2022-12-05T03:23:48;2.50;99.90
1800;DHT22;919;48.274;12.292;2022-12-05T03:26:21;2.50;99.90
1800;DHT22;919;48.274;12.292;2022-12-05T03:28:59;2.40;99.90
1800;DHT22;919;48.274;12.292;2022-12-05T03:31:36;2.40;99.90
1800;DHT22;919;48.274;12.292;2022-12-05T03:34:07;2.40;99.90
1800;DHT22;919;48.274;12.292;2022-12-05T03:36:43;2.40;99.90
1800;DHT22;919;48.274;12.292;2022-12-05T03:39:17;2.40;99.90
1800;DHT22;919;48.274;12.292;2022-12-05T03:41:54;2.40;99.90
1800;DHT22;919;48.274;12.292;2022-12-05T03:44:27;2.30;99.90
1800;DHT22;919;48.274;12.292;2022-12-05T03:47:00;2.30;99.90
1800;DHT22;919;48.274;12.292;2022-12-05T03:49:32;2.30;99.90
1800;DHT22;919;48.274;12.292;2022-12-05T03:52:05;2.30;99.90
1800;DHT22;919;48.274;12.292;2022-12-05T03:54:36;2.30;99.90
1800;DHT22;919;48.274;12.292;2022-12-05T03:57:08;2.30;99.90
1800;DHT22;919;48.274;12.292;2022-12-05T03:59:39;2.30;99.90
1800;DHT22;919;48.274;12.292;2022-12-05T04:02:12;2.30;99.90
1800;DHT22;919;48.274;12.292;2022-12-05T04:04:45;2.20;99.90
1800;DHT22;919;48.274;12.292;2022-12-05T04:07:15;2.20;99.90
1800;DHT22;919;48.274;12.292;2022-12-05T04:09:46;2.20;99.90
1800;DHT22;919;48.274;12.292;2022-12-05T04:12:21;2.10;99.90
1800;DHT22;919;48.274;12.292;2022-12-05T04:14:50;2.10;99.90
1800;DHT22;919;48.274;12.292;2022-12-05T04:17:25;2.10;99.90
1800;DHT22;919;48.274;12.292;2022-12-05T04:19:57;2.10;99.90
1800;DHT22;919;48.274;12.292;2022-12-05T04:22:43;2.00;99.90
1800;DHT22;919;48.274;12.292;2022-12-05T04:25:12;2.00;99.90
1800;DHT22;919;48.274;12.292;2022-12-05T04:28:02;2.00;99.90
1800;DHT22;919;48.274;12.292;2022-12-05T04:30:35;2.00;99.90
1800;DHT22;919;48.274;12.292;2022-12-05T04:33:10;2.00;99.90
1800;DHT22;919;48.274;12.292;2022-12-05T04:35:42;2.00;99.90
1800;DHT22;919;48.274;12.292;2022-12-05T04:38:14;2.00;99.90
1800;DHT22;919;48.274;12.292;2022-12-05T04:40:46;2.00;99.90
1800;DHT22;919;48.274;12.292;2022-12-05T04:43:15;2.00;99.90
1800;DHT22;919;48.274;12.292;2022-12-05T04:45:43;2.00;99.90
1800;DHT22;919;48.274;12.292;2022-12-05T04:48:13;2.00;99.90
1800;DHT22;919;48.274;12.292;2022-12-05T04:50:41;2.00;99.90
1800;DHT22;919;48.274;12.292;2022-12-05T04:53:10;2.00;99.90
1800;DHT22;919;48.274;12.292;2022-12-05T04:55:40;2.00;99.90
1800;DHT22;919;48.274;12.292;2022-12-05T04:58:10;2.00;99.90
1800;DHT22;919;48.274;12.292;2022-12-05T05:00:45;2.00;99.90
1800;DHT22;919;48.274;12.292;2022-12-05T05:03:19;2.00;99.90
1800;DHT22;919;48.274;12.292;2022-12-05T05:05:51;2.00;99.90
1800;DHT22;919;48.274;12.292;2022-12-05T05:08:20;2.10;99.90
1800;DHT22;919;48.274;12.292;2022-12-05T05:10:53;2.10;99.90
1800;DHT22;919;48.274;12.292;2022-12-05T05:13:22;2.10;99.90
1800;DHT22;919;48.274;12.292;2022-12-05T05:15:49;2.10;99.90
1800;DHT22;919;48.274;12.292;2022-12-05T05:18:18;2.10;99.90
1800;DHT22;919;48.274;12.292;2022-12-05T05:20:44;2.10;99.90
1800;DHT22;919;48.274;12.292;2022-12-05T05:23:11;2.10;99.90
1800;DHT22;919;48.274;12.292;2022-12-05T05:25:38;2.10;99.90
1800;DHT22;919;48.274;12.292;2022-12-05T05:28:05;2.10;99.90
1800;DHT22;919;48.274;12.292;2022-12-05T05:30:32;2.10;99.90
1800;DHT22;919;48.274;12.292;2022-12-05T05:32:59;2.10;99.90
1800;DHT22;919;48.274;12.292;2022-12-05T05:35:27;2.10;99.90
1800;DHT22;919;48.274;12.292;2022-12-05T05:37:54;2.10;99.90
1800;DHT22;919;48.274;12.292;2022-12-05T05:40:21;2.10;99.90
1800;DHT22;919;48.274;12.292;2022-12-05T05:42:48;2.10;99.90
1800;DHT22;919;48.274;12.292;2022-12-05T05:45:16;2.20;99.90
1800;DHT22;919;48.274;12.292;2022-12-05T05:47:43;2.20;99.90
1800;DHT22;919;48.274;12.292;2022-12-05T05:50:11;2.10;99.90
1800;DHT22;919;48.274;12.292;2022-12-05T05:52:39;2.20;99.90
1800;DHT22;919;48.274;12.292;2022-12-05T05:55:06;2.20;99.90
1800;DHT22;919;48.274;12.292;2022-12-05T05:57:34;2.20;99.90
1800;DHT22;919;48.274;12.292;2022-12-05T06:00:01;2.30;99.90
1800;DHT22;919;48.274;12.292;2022-12-05T06:02:31;2.30;99.90
1800;DHT22;919;48.274;12.292;2022-12-05T06:04:58;2.30;99.90
1800;DHT22;919;48.274;12.292;2022-12-05T06:07:25;2.30;99.90
1800;DHT22;919;48.274;12.292;2022-12-05T06:09:54;2.30;99.90
1800;DHT22;919;48.274;12.292;2022-12-05T06:12:20;2.30;99.90
1800;DHT22;919;48.274;12.292;2022-12-05T06:14:47;2.30;99.90
1800;DHT22;919;48.274;12.292;2022-12-05T06:17:14;2.30;99.90
1800;DHT22;919;48.274;12.292;2022-12-05T06:19:41;2.30;99.90
1800;DHT22;919;48.274;12.292;2022-12-05T06:22:08;2.30;99.90
1800;DHT22;919;48.274;12.292;2022-12-05T06:24:35;2.30;99.90
1800;DHT22;919;48.274;12.292;2022-12-05T06:27:03;2.20;99.90
1800;DHT22;919;48.274;12.292;2022-12-05T06:29:30;2.30;99.90
1800;DHT22;919;48.274;12.292;2022-12-05T06:31:56;2.40;99.90
1800;DHT22;919;48.274;12.292;2022-12-05T06:34:23;2.40;99.90
1800;DHT22;919;48.274;12.292;2022-12-05T06:36:50;2.30;99.90
1800;DHT22;919;48.274;12.292;2022-12-05T06:39:17;2.40;99.90
1800;DHT22;919;48.274;12.292;2022-12-05T06:41:43;2.40;99.90
1800;DHT22;919;48.274;12.292;2022-12-05T06:44:12;2.40;99.90
1800;DHT22;919;48.274;12.292;2022-12-05T06:46:38;2.40;99.90
1800;DHT22;919;48.274;12.292;2022-12-05T06:49:05;2.40;99.90
1800;DHT22;919;48.274;12.292;2022-12-05T06:51:32;2.50;99.90
1800;DHT22;919;48.274;12.292;2022-12-05T06:53:58;2.40;99.90
1800;DHT22;919;48.274;12.292;2022-12-05T06:56:25;2.40;99.90
1800;DHT22;919;48.274;12.292;2022-12-05T06:58:53;2.40;99.90
1800;DHT22;919;48.274;12.292;2022-12-05T07:01:22;2.40;99.90
1800;DHT22;919;48.274;12.292;2022-12-05T07:04:04;2.40;99.90
1800;DHT22;919;48.274;12.292;2022-12-05T07:06:32;2.50;99.90
1800;DHT22;919;48.274;12.292;2022-12-05T07:08:59;2.50;99.90
1800;DHT22;919;48.274;12.292;2022-12-05T07:11:26;2.50;99.90
1800;DHT22;919;48.274;12.292;2022-12-05T07:13:53;2.50;99.90
1800;DHT22;919;48.274;12.292;2022-12-05T07:16:21;2.50;99.90
1800;DHT22;919;48.274;12.292;2022-12-05T07:18:48;2.50;99.90
1800;DHT22;919;48.274;12.292;2022-12-05T07:21:16;2.50;99.90
1800;DHT22;919;48.274;12.292;2022-12-05T07:23:44;2.50;99.90
1800;DHT22;919;48.274;12.292;2022-12-05T07:26:13;2.50;99.90
1800;DHT22;919;48.274;12.292;2022-12-05T07:28:40;2.50;99.90
1800;DHT22;919;48.274;12.292;2022-12-05T07:31:08;2.50;99.90
1800;DHT22;919;48.274;12.292;2022-12-05T07:33:37;2.60;99.90
1800;DHT22;919;48.274;12.292;2022-12-05T07:36:05;2.60;99.90
1800;DHT22;919;48.274;12.292;2022-12-05T07:38:33;2.60;99.90
1800;DHT22;919;48.274;12.292;2022-12-05T07:41:03;2.70;99.90
1800;DHT22;919;48.274;12.292;2022-12-05T07:43:30;2.60;99.90
1800;DHT22;919;48.274;12.292;2022-12-05T07:46:01;2.70;99.90
1800;DHT22;919;48.274;12.292;2022-12-05T07:48:27;2.70;99.90
1800;DHT22;919;48.274;12.292;2022-12-05T07:50:59;2.70;99.90
1800;DHT22;919;48.274;12.292;2022-12-05T07:53:27;2.80;99.90
1800;DHT22;919;48.274;12.292;2022-12-05T07:55:54;2.80;99.90
1800;DHT22;919;48.274;12.292;2022-12-05T07:58:20;2.80;99.90
1800;DHT22;919;48.274;12.292;2022-12-05T08:00:47;2.80;99.90
1800;DHT22;919;48.274;12.292;2022-12-05T08:03:14;2.80;99.90
1800;DHT22;919;48.274;12.292;2022-12-05T08:05:41;2.80;99.90
1800;DHT22;919;48.274;12.292;2022-12-05T08:08:09;2.90;99.90
1800;DHT22;919;48.274;12.292;2022-12-05T08:10:36;2.90;99.90
1800;DHT22;919;48.274;12.292;2022-12-05T08:13:02;2.90;99.90
1800;DHT22;919;48.274;12.292;2022-12-05T08:15:29;3.00;99.90
1800;DHT22;919;48.274;12.292;2022-12-05T08:17:56;3.10;99.90
1800;DHT22;919;48.274;12.292;2022-12-05T08:20:23;3.10;99.90
1800;DHT22;919;48.274;12.292;2022-12-05T08:22:51;3.10;99.90
1800;DHT22;919;48.274;12.292;2022-12-05T08:25:20;3.20;99.90
1800;DHT22;919;48.274;12.292;2022-12-05T08:27:46;3.10;99.90
1800;DHT22;919;48.274;12.292;2022-12-05T08:30:13;3.20;99.90
1800;DHT22;919;48.274;12.292;2022-12-05T08:32:40;3.10;99.90
1800;DHT22;919;48.274;12.292;2022-12-05T08:35:07;3.10;99.90
1800;DHT22;919;48.274;12.292;2022-12-05T08:37:35;3.10;99.90
1800;DHT22;919;48.274;12.292;2022-12-05T08:40:02;3.10;99.90
1800;DHT22;919;48.274;12.292;2022-12-05T08:42:30;3.10;99.90
1800;DHT22;919;48.274;12.292;2022-12-05T08:44:57;3.10;99.90
1800;DHT22;919;48.274;12.292;2022-12-05T08:47:24;3.10;99.90
1800;DHT22;919;48.274;12.292;2022-12-05T08:49:51;3.10;99.90
1800;DHT22;919;48.274;12.292;2022-12-05T08:52:18;3.10;99.90
1800;DHT22;919;48.274;12.292;2022-12-05T08:54:46;3.20;99.90
1800;DHT22;919;48.274;12.292;2022-12-05T08:57:13;3.30;99.90
1800;DHT22;919;48.274;12.292;2022-12-05T08:59:41;3.30;99.90
1800;DHT22;919;48.274;12.292;2022-12-05T09:02:08;3.40;99.90
1800;DHT22;919;48.274;12.292;2022-12-05T09:04:35;3.30;99.90
1800;DHT22;919;48.274;12.292;2022-12-05T09:07:02;3.40;99.90
1800;DHT22;919;48.274;12.292;2022-12-05T09:09:29;3.40;99.90
1800;DHT22;919;48.274;12.292;2022-12-05T09:11:57;3.40;99.90
1800;DHT22;919;48.274;12.292;2022-12-05T09:14:24;3.40;99.90
1800;DHT22;919;48.274;12.292;2022-12-05T09:16:59;3.50;99.90
1800;DHT22;919;48.274;12.292;2022-12-05T09:19:26;3.50;99.90
1800;DHT22;919;48.274;12.292;2022-12-05T09:21:54;3.50;99.90
1800;DHT22;919;48.274;12.292;2022-12-05T09:24:21;3.40;99.90
1800;DHT22;919;48.274;12.292;2022-12-05T09:26:48;3.50;99.90
1800;DHT22;919;48.274;12.292;2022-12-05T09:29:16;3.50;99.90
1800;DHT22;919;48.274;12.292;2022-12-05T09:31:43;3.40;99.90
1800;DHT22;919;48.274;12.292;2022-12-05T09:34:12;3.40;99.90
1800;DHT22;919;48.274;12.292;2022-12-05T09:36:40;3.50;99.90
1800;DHT22;919;48.274;12.292;2022-12-05T09:39:07;3.50;99.90
1800;DHT22;919;48.274;12.292;2022-12-05T09:41:54;3.50;99.90
1800;DHT22;919;48.274;12.292;2022-12-05T09:44:43;3.50;99.90
1800;DHT22;919;48.274;12.292;2022-12-05T09:47:16;3.60;99.90
1800;DHT22;919;48.274;12.292;2022-12-05T09:49:50;3.60;99.90
1800;DHT22;919;48.274;12.292;2022-12-05T09:52:23;3.50;99.90
1800;DHT22;919;48.274;12.292;2022-12-05T09:54:52;3.50;99.90
1800;DHT22;919;48.274;12.292;2022-12-05T09:57:25;3.40;99.90
1800;DHT22;919;48.274;12.292;2022-12-05T09:59:55;3.40;99.90
1800;DHT22;919;48.274;12.292;2022-12-05T10:02:28;3.40;99.90
1800;DHT22;919;48.274;12.292;2022-12-05T10:05:02;3.50;99.90
1800;DHT22;919;48.274;12.292;2022-12-05T10:07:37;3.50;99.90
1800;DHT22;919;48.274;12.292;2022-12-05T10:10:21;3.50;99.90
1800;DHT22;919;48.274;12.292;2022-12-05T10:13:00;3.50;99.90
1800;DHT22;919;48.274;12.292;2022-12-05T10:15:31;3.40;99.90
1800;DHT22;919;48.274;12.292;2022-12-05T10:18:02;3.40;99.90
1800;DHT22;919;48.274;12.292;2022-12-05T10:20:33;3.40;99.90
1800;DHT22;919;48.274;12.292;2022-12-05T10:23:03;3.40;99.90
1800;DHT22;919;48.274;12.292;2022-12-05T10:25:31;3.50;99.90
1800;DHT22;919;48.274;12.292;2022-12-05T10:28:03;3.40;99.90
1800;DHT22;919;48.274;12.292;2022-12-05T10:30:32;3.50;99.90
1800;DHT22;919;48.274;12.292;2022-12-05T10:33:02;3.50;99.90
1800;DHT22;919;48.274;12.292;2022-12-05T10:35:33;3.60;99.90
1800;DHT22;919;48.274;12.292;2022-12-05T10:38:03;3.60;99.90
1800;DHT22;919;48.274;12.292;2022-12-05T10:40:35;3.60;99.90
1800;DHT22;919;48.274;12.292;2022-12-05T10:43:04;3.70;99.90
1800;DHT22;919;48.274;12.292;2022-12-05T10:45:34;3.70;99.90
1800;DHT22;919;48.274;12.292;2022-12-05T10:48:10;3.70;99.90
1800;DHT22;919;48.274;12.292;2022-12-05T10:50:39;3.70;99.90
1800;DHT22;919;48.274;12.292;2022-12-05T10:53:14;3.70;99.90
1800;DHT22;919;48.274;12.292;2022-12-05T10:55:43;3.70;99.90
1800;DHT22;919;48.274;12.292;2022-12-05T10:58:13;3.70;99.90
1800;DHT22;919;48.274;12.292;2022-12-05T11:00:40;3.70;99.90
1800;DHT22;919;48.274;12.292;2022-12-05T11:03:23;3.70;99.90
1800;DHT22;919;48.274;12.292;2022-12-05T11:05:55;3.80;99.90
1800;DHT22;919;48.274;12.292;2022-12-05T11:08:24;3.80;99.90
1800;DHT22;919;48.274;12.292;2022-12-05T11:11:00;3.70;99.90
1800;DHT22;919;48.274;12.292;2022-12-05T11:13:28;3.80;99.90
1800;DHT22;919;48.274;12.292;2022-12-05T11:15:55;3.80;99.90
1800;DHT22;919;48.274;12.292;2022-12-05T11:18:28;3.80;99.90
1800;DHT22;919;48.274;12.292;2022-12-05T11:21:03;3.90;99.90
1800;DHT22;919;48.274;12.292;2022-12-05T11:23:34;3.90;99.90
1800;DHT22;919;48.274;12.292;2022-12-05T11:26:01;3.80;99.90
1800;DHT22;919;48.274;12.292;2022-12-05T11:28:32;3.90;99.90
1800;DHT22;919;48.274;12.292;2022-12-05T11:31:02;3.90;99.90
1800;DHT22;919;48.274;12.292;2022-12-05T11:33:31;3.90;99.90
1800;DHT22;919;48.274;12.292;2022-12-05T11:36:03;3.90;99.90
1800;DHT22;919;48.274;12.292;2022-12-05T11:38:31;3.90;99.90
1800;DHT22;919;48.274;12.292;2022-12-05T11:41:12;3.90;99.90
1800;DHT22;919;48.274;12.292;2022-12-05T11:43:59;4.00;99.90
1800;DHT22;919;48.274;12.292;2022-12-05T11:46:35;4.00;99.90
1800;DHT22;919;48.274;12.292;2022-12-05T11:49:19;4.00;99.90
1800;DHT22;919;48.274;12.292;2022-12-05T11:51:58;4.00;99.90
1800;DHT22;919;48.274;12.292;2022-12-05T11:54:52;4.00;99.90
1800;DHT22;919;48.274;12.292;2022-12-05T11:57:27;4.10;99.90
1800;DHT22;919;48.274;12.292;2022-12-05T12:00:05;4.10;99.90
1800;DHT22;919;48.274;12.292;2022-12-05T12:02:46;4.10;99.90
1800;DHT22;919;48.274;12.292;2022-12-05T12:05:17;4.10;99.90
1800;DHT22;919;48.274;12.292;2022-12-05T12:07:57;4.20;99.90
1800;DHT22;919;48.274;12.292;2022-12-05T12:10:32;4.20;99.90
1800;DHT22;919;48.274;12.292;2022-12-05T12:13:15;4.30;99.90
1800;DHT22;919;48.274;12.292;2022-12-05T12:16:03;4.30;99.90
1800;DHT22;919;48.274;12.292;2022-12-05T12:18:52;4.40;99.90
1800;DHT22;919;48.274;12.292;2022-12-05T12:21:30;4.40;99.90
1800;DHT22;919;48.274;12.292;2022-12-05T12:24:09;4.50;99.90
1800;DHT22;919;48.274;12.292;2022-12-05T12:26:47;4.50;99.90
1800;DHT22;919;48.274;12.292;2022-12-05T12:29:31;4.50;99.90
1800;DHT22;919;48.274;12.292;2022-12-05T12:32:10;4.50;99.90
1800;DHT22;919;48.274;12.292;2022-12-05T12:34:53;4.50;99.90
1800;DHT22;919;48.274;12.292;2022-12-05T12:37:29;4.50;99.90
1800;DHT22;919;48.274;12.292;2022-12-05T12:40:04;4.50;99.90
1800;DHT22;919;48.274;12.292;2022-12-05T12:42:44;4.50;99.90
1800;DHT22;919;48.274;12.292;2022-12-05T12:45:34;4.50;99.90
1800;DHT22;919;48.274;12.292;2022-12-05T12:48:12;4.40;99.90
1800;DHT22;919;48.274;12.292;2022-12-05T12:50:44;4.50;99.90
1800;DHT22;919;48.274;12.292;2022-12-05T12:53:46;4.40;99.90
1800;DHT22;919;48.274;12.292;2022-12-05T12:56:25;4.50;99.90
1800;DHT22;919;48.274;12.292;2022-12-05T12:59:01;4.50;99.90
1800;DHT22;919;48.274;12.292;2022-12-05T13:01:32;4.50;99.90
1800;DHT22;919;48.274;12.292;2022-12-05T13:04:06;4.40;99.90
1800;DHT22;919;48.274;12.292;2022-12-05T13:06:40;4.40;99.90
1800;DHT22;919;48.274;12.292;2022-12-05T13:09:14;4.40;99.90
1800;DHT22;919;48.274;12.292;2022-12-05T13:11:46;4.40;99.90
1800;DHT22;919;48.274;12.292;2022-12-05T13:14:15;4.40;99.90
1800;DHT22;919;48.274;12.292;2022-12-05T13:16:46;4.40;99.90
1800;DHT22;919;48.274;12.292;2022-12-05T13:19:23;4.40;99.90
1800;DHT22;919;48.274;12.292;2022-12-05T13:21:52;4.40;99.90
1800;DHT22;919;48.274;12.292;2022-12-05T13:24:20;4.40;99.90
1800;DHT22;919;48.274;12.292;2022-12-05T13:26:50;4.40;99.90
1800;DHT22;919;48.274;12.292;2022-12-05T13:29:20;4.40;99.90
1800;DHT22;919;48.274;12.292;2022-12-05T13:31:49;4.50;99.90
1800;DHT22;919;48.274;12.292;2022-12-05T13:34:41;4.50;99.90
1800;DHT22;919;48.274;12.292;2022-12-05T13:37:22;4.40;99.90
1800;DHT22;919;48.274;12.292;2022-12-05T13:40:22;4.40;99.90
1800;DHT22;919;48.274;12.292;2022-12-05T13:43:09;4.40;99.90
1800;DHT22;919;48.274;12.292;2022-12-05T13:45:36;4.30;99.90
1800;DHT22;919;48.274;12.292;2022-12-05T13:48:20;4.30;99.90
1800;DHT22;919;48.274;12.292;2022-12-05T13:50:53;4.40;99.90
1800;DHT22;919;48.274;12.292;2022-12-05T13:53:26;4.30;99.90
1800;DHT22;919;48.274;12.292;2022-12-05T13:55:56;4.30;99.90
1800;DHT22;919;48.274;12.292;2022-12-05T13:58:48;4.30;99.90
1800;DHT22;919;48.274;12.292;2022-12-05T14:01:41;4.30;99.90
1800;DHT22;919;48.274;12.292;2022-12-05T14:07:02;4.30;99.90
1800;DHT22;919;48.274;12.292;2022-12-05T14:09:48;4.30;99.90
1800;DHT22;919;48.274;12.292;2022-12-05T14:12:29;4.20;99.90
1800;DHT22;919;48.274;12.292;2022-12-05T14:14:59;4.20;99.90
1800;DHT22;919;48.274;12.292;2022-12-05T14:17:30;4.20;99.90
1800;DHT22;919;48.274;12.292;2022-12-05T14:20:08;4.10;99.90
1800;DHT22;919;48.274;12.292;2022-12-05T14:22:57;4.10;99.90
1800;DHT22;919;48.274;12.292;2022-12-05T14:25:36;4.10;99.90
1800;DHT22;919;48.274;12.292;2022-12-05T14:28:14;4.10;99.90
1800;DHT22;919;48.274;12.292;2022-12-05T14:31:00;4.10;99.90
1800;DHT22;919;48.274;12.292;2022-12-05T14:33:31;4.10;99.90
1800;DHT22;919;48.274;12.292;2022-12-05T14:36:04;4.10;99.90
1800;DHT22;919;48.274;12.292;2022-12-05T14:38:33;4.10;99.90
1800;DHT22;919;48.274;12.292;2022-12-05T14:41:11;4.10;99.90
1800;DHT22;919;48.274;12.292;2022-12-05T14:43:40;4.10;99.90
1800;DHT22;919;48.274;12.292;2022-12-05T14:46:15;4.00;99.90
1800;DHT22;919;48.274;12.292;2022-12-05T14:48:46;4.00;99.90
1800;DHT22;919;48.274;12.292;2022-12-05T14:51:42;4.00;99.90
1800;DHT22;919;48.274;12.292;2022-12-05T14:54:11;4.00;99.90
1800;DHT22;919;48.274;12.292;2022-12-05T14:56:40;4.00;99.90
1800;DHT22;919;48.274;12.292;2022-12-05T14:59:22;4.00;99.90
1800;DHT22;919;48.274;12.292;2022-12-05T15:01:54;4.00;99.90
1800;DHT22;919;48.274;12.292;2022-12-05T15:04:29;4.00;99.90
1800;DHT22;919;48.274;12.292;2022-12-05T15:07:00;4.00;99.90
1800;DHT22;919;48.274;12.292;2022-12-05T15:09:42;4.00;99.90
1800;DHT22;919;48.274;12.292;2022-12-05T15:12:13;4.00;99.90
1800;DHT22;919;48.274;12.292;2022-12-05T15:14:46;4.00;99.90
1800;DHT22;919;48.274;12.292;2022-12-05T15:17:20;4.00;99.90
1800;DHT22;919;48.274;12.292;2022-12-05T15:19:54;4.00;99.90
1800;DHT22;919;48.274;12.292;2022-12-05T15:22:24;4.00;99.90
1800;DHT22;919;48.274;12.292;2022-12-05T15:24:52;4.00;99.90
1800;DHT22;919;48.274;12.292;2022-12-05T15:27:19;4.00;99.90
1800;DHT22;919;48.274;12.292;2022-12-05T15:29:46;4.00;99.90
1800;DHT22;919;48.274;12.292;2022-12-05T15:32:18;4.00;99.90
1800;DHT22;919;48.274;12.292;2022-12-05T15:34:50;4.00;99.90
1800;DHT22;919;48.274;12.292;2022-12-05T15:37:22;4.00;99.90
1800;DHT22;919;48.274;12.292;2022-12-05T15:39:54;3.90;99.90
1800;DHT22;919;48.274;12.292;2022-12-05T15:42:22;3.90;99.90
1800;DHT22;919;48.274;12.292;2022-12-05T15:44:49;3.90;99.90
1800;DHT22;919;48.274;12.292;2022-12-05T15:47:23;3.90;99.90
1800;DHT22;919;48.274;12.292;2022-12-05T15:49:50;3.90;99.90
1800;DHT22;919;48.274;12.292;2022-12-05T15:52:25;4.00;99.90
1800;DHT22;919;48.274;12.292;2022-12-05T15:54:57;4.00;99.90
1800;DHT22;919;48.274;12.292;2022-12-05T15:57:30;4.00;99.90
1800;DHT22;919;48.274;12.292;2022-12-05T16:00:04;4.00;99.90
1800;DHT22;919;48.274;12.292;2022-12-05T16:02:38;4.00;99.90
1800;DHT22;919;48.274;12.292;2022-12-05T16:05:21;3.90;99.90
1800;DHT22;919;48.274;12.292;2022-12-05T16:07:50;4.00;99.90
1800;DHT22;919;48.274;12.292;2022-12-05T16:10:18;3.90;99.90
1800;DHT22;919;48.274;12.292;2022-12-05T16:12:46;3.90;99.90
1800;DHT22;919;48.274;12.292;2022-12-05T16:15:15;3.90;99.90
1800;DHT22;919;48.274;12.292;2022-12-05T16:17:51;4.00;99.90
1800;DHT22;919;48.274;12.292;2022-12-05T16:20:24;4.00;99.90
1800;DHT22;919;48.274;12.292;2022-12-05T16:22:55;4.00;99.90
1800;DHT22;919;48.274;12.292;2022-12-05T16:25:23;4.00;99.90
1800;DHT22;919;48.274;12.292;2022-12-05T16:28:02;4.00;99.90
1800;DHT22;919;48.274;12.292;2022-12-05T16:30:29;4.00;99.90
1800;DHT22;919;48.274;12.292;2022-12-05T16:33:05;4.00;99.90
1800;DHT22;919;48.274;12.292;2022-12-05T16:35:35;4.00;99.90
1800;DHT22;919;48.274;12.292;2022-12-05T16:38:13;4.00;99.90
1800;DHT22;919;48.274;12.292;2022-12-05T16:40:49;4.00;99.90
1800;DHT22;919;48.274;12.292;2022-12-05T16:43:22;4.00;99.90
1800;DHT22;919;48.274;12.292;2022-12-05T16:45:51;4.00;99.90
1800;DHT22;919;48.274;12.292;2022-12-05T16:48:22;4.00;99.90
1800;DHT22;919;48.274;12.292;2022-12-05T16:50:51;4.00;99.90
1800;DHT22;919;48.274;12.292;2022-12-05T16:53:21;4.00;99.90